sensor_id;sensor_type;location;lat;lon;timestamp;temperature;humidity
23403;DHT22;11874;48.228;11.684;2023-09-19T14:06:11;23.90;99.90
23403;DHT22;11874;48.228;11.684;2023-09-19T14:08:56;24.20;99.90
23403;DHT22;11874;48.228;11.684;2023-09-19T14:15:37;24.60;99.90
23403;DHT22;11874;48.228;11.684;2023-09-19T14:33:15;23.70;99.50
23403;DHT22;11874;48.228;11.684;2023-09-19T14:40:13;24.10;99.00
23403;DHT22;11874;48.228;11.684;2023-09-19T14:42:44;24.40;98.50
23403;DHT22;11874;48.228;11.684;2023-09-19T14:45:15;24.60;98.00
23403;DHT22;11874;48.228;11.684;2023-09-19T14:47:46;24.80;97.50
23403;DHT22;11874;48.228;11.684;2023-09-19T14:50:18;24.80;96.70
23403;DHT22;11874;48.228;11.684;2023-09-19T14:52:47;25.00;96.40
23403;DHT22;11874;48.228;11.684;2023-09-19T14:55:16;25.20;96.30
23403;DHT22;11874;48.228;11.684;2023-09-19T14:57:49;25.40;96.30
23403;DHT22;11874;48.228;11.684;2023-09-19T15:00:18;25.60;96.00
23403;DHT22;11874;48.228;11.684;2023-09-19T15:02:48;25.90;95.40
23403;DHT22;11874;48.228;11.684;2023-09-19T15:05:20;26.10;94.90
23403;DHT22;11874;48.228;11.684;2023-09-19T15:07:50;26.20;94.50
23403;DHT22;11874;48.228;11.684;2023-09-19T15:10:18;26.50;94.40
23403;DHT22;11874;48.228;11.684;2023-09-19T15:12:46;26.70;93.90
23403;DHT22;11874;48.228;11.684;2023-09-19T15:15:18;26.70;93.20
23403;DHT22;11874;48.228;11.684;2023-09-19T15:17:46;26.50;93.60
23403;DHT22;11874;48.228;11.684;2023-09-19T15:20:16;26.50;93.40
23403;DHT22;11874;48.228;11.684;2023-09-19T15:22:46;26.40;93.30
23403;DHT22;11874;48.228;11.684;2023-09-19T15:25:15;26.20;93.30
23403;DHT22;11874;48.228;11.684;2023-09-19T15:27:43;26.00;93.60
23403;DHT22;11874;48.228;11.684;2023-09-19T15:30:12;25.80;93.80
23403;DHT22;11874;48.228;11.684;2023-09-19T15:32:42;25.70;94.00
23403;DHT22;11874;48.228;11.684;2023-09-19T15:35:26;25.60;93.80
23403;DHT22;11874;48.228;11.684;2023-09-19T15:38:09;25.40;94.10
23403;DHT22;11874;48.228;11.684;2023-09-19T15:40:46;25.30;94.00
23403;DHT22;11874;48.228;11.684;2023-09-19T15:43:14;25.20;93.90
23403;DHT22;11874;48.228;11.684;2023-09-19T15:45:45;25.10;94.00
23403;DHT22;11874;48.228;11.684;2023-09-19T15:48:16;25.00;94.10
23403;DHT22;11874;48.228;11.684;2023-09-19T15:50:45;24.90;94.30
23403;DHT22;11874;48.228;11.684;2023-09-19T15:53:17;24.80;94.30
23403;DHT22;11874;48.228;11.684;2023-09-19T15:55:46;24.80;94.60
23403;DHT22;11874;48.228;11.684;2023-09-19T15:58:14;24.70;94.70
23403;DHT22;11874;48.228;11.684;2023-09-19T16:00:42;24.70;94.90
23403;DHT22;11874;48.228;11.684;2023-09-19T16:03:10;24.60;94.90
23403;DHT22;11874;48.228;11.684;2023-09-19T16:05:38;24.60;94.90
23403;DHT22;11874;48.228;11.684;2023-09-19T16:08:09;24.60;94.70
23403;DHT22;11874;48.228;11.684;2023-09-19T16:10:38;24.50;94.70
23403;DHT22;11874;48.228;11.684;2023-09-19T16:13:07;24.40;94.70
23403;DHT22;11874;48.228;11.684;2023-09-19T16:15:41;24.30;94.70
23403;DHT22;11874;48.228;11.684;2023-09-19T16:18:09;24.20;94.90
23403;DHT22;11874;48.228;11.684;2023-09-19T16:20:37;24.20;95.10
23403;DHT22;11874;48.228;11.684;2023-09-19T16:23:06;24.10;95.10
23403;DHT22;11874;48.228;11.684;2023-09-19T16:25:34;24.10;95.10
23403;DHT22;11874;48.228;11.684;2023-09-19T16:28:05;24.00;95.20
